Time;durP1;ratioP1;P1;durP2;ratioP2;P2;SDS_P1;SDS_P2;PMS_P1;PMS_P2;Temp;Humidity;BMP_temperature;BMP_pressure;BME280_temperature;BME280_humidity;BME280_pressure;Samples;Min_cycle;Max_cycle;Signal;HPM_P1;HPM_P2
2022/02/18 00:00:06;;;;;;;15.10;10.78;;;;;;;5.19;74.39;92913.08;1649682;83;21453;-47
2022/02/18 00:02:33;;;;;;;5.28;4.55;;;;;;;5.28;73.58;92921.25;1698296;83;20956;-48
2022/02/18 00:04:59;;;;;;;21.05;14.63;;;;;;;5.37;71.02;92919.86;1691917;83;21567;-47
2022/02/18 00:07:26;;;;;;;27.00;16.35;;;;;;;5.43;71.18;92933.04;1716958;83;21777;-47
2022/02/18 00:09:52;;;;;;;15.20;8.48;;;;;;;5.46;71.12;92936.20;1692673;83;21410;-46
2022/02/18 00:12:19;;;;;;;9.98;7.00;;;;;;;5.48;71.56;92940.59;1683965;83;21056;-47
2022/02/18 00:14:47;;;;;;;5.35;4.45;;;;;;;5.46;72.02;92943.02;1686532;83;21397;-46
2022/02/18 00:17:14;;;;;;;11.85;7.95;;;;;;;5.38;72.59;92956.84;1710735;83;21005;-47
2022/02/18 00:19:41;;;;;;;12.47;8.63;;;;;;;5.37;72.86;92962.11;1688971;83;21485;-51
2022/02/18 00:22:07;;;;;;;10.82;7.92;;;;;;;5.30;72.79;92961.84;1702095;83;21485;-47
2022/02/18 00:24:34;;;;;;;10.88;8.00;;;;;;;5.28;73.17;92960.78;1694499;83;21076;-47
2022/02/18 00:27:01;;;;;;;9.58;7.03;;;;;;;5.25;73.06;92967.14;1709488;83;20976;-47
2022/02/18 00:29:28;;;;;;;9.75;7.15;;;;;;;5.23;73.47;92975.02;1707149;83;21047;-47
2022/02/18 00:31:56;;;;;;;9.18;5.95;;;;;;;5.18;73.81;92973.51;1691620;83;21167;-47
2022/02/18 00:34:25;;;;;;;47.67;16.65;;;;;;;5.19;74.34;92985.30;1690355;83;20953;-47
2022/02/18 00:36:52;;;;;;;13.30;8.28;;;;;;;5.23;74.25;92981.84;1704331;82;21536;-48
2022/02/18 00:39:19;;;;;;;16.27;9.95;;;;;;;5.18;74.47;93001.50;1673371;83;21096;-47
2022/02/18 00:41:47;;;;;;;19.67;10.75;;;;;;;5.07;72.27;92995.00;1708750;83;21000;-46
2022/02/18 00:44:16;;;;;;;26.90;15.08;;;;;;;5.06;72.53;92997.58;1679439;83;21145;-47
2022/02/18 00:46:42;;;;;;;29.30;15.98;;;;;;;5.08;72.78;93004.69;1659231;83;20980;-47
2022/02/18 00:49:09;;;;;;;20.25;11.33;;;;;;;5.06;72.98;93007.11;1702080;83;21021;-48
2022/02/18 00:51:37;;;;;;;25.82;15.03;;;;;;;4.99;73.19;93004.08;1690343;83;21071;-51
2022/02/18 00:54:04;;;;;;;23.02;15.32;;;;;;;4.98;73.49;93016.19;1689004;83;21463;-47
2022/02/18 00:56:32;;;;;;;21.00;11.95;;;;;;;5.06;73.48;93012.56;1690681;83;21107;-48
2022/02/18 00:59:02;;;;;;;19.45;12.63;;;;;;;5.10;73.62;93015.30;1676788;83;21002;-52
2022/02/18 01:01:27;;;;;;;16.27;11.88;;;;;;;5.18;73.68;93013.02;1700432;83;21037;-47
2022/02/18 01:03:56;;;;;;;19.37;12.68;;;;;;;5.21;73.60;93020.29;1697995;83;21476;-48
2022/02/18 01:06:23;;;;;;;45.80;32.98;;;;;;;5.12;73.78;93022.41;1697117;83;21044;-48
2022/02/18 01:08:49;;;;;;;28.45;20.27;;;;;;;4.98;73.96;93027.70;1701481;83;21196;-48
2022/02/18 01:11:18;;;;;;;21.23;14.35;;;;;;;4.89;74.27;93030.41;1691741;83;21049;-48
2022/02/18 01:13:46;;;;;;;19.77;13.93;;;;;;;4.85;74.21;93042.05;1708728;83;21006;-48
2022/02/18 01:16:17;;;;;;;26.37;14.38;;;;;;;4.80;73.99;93035.23;1699170;83;21438;-47
2022/02/18 01:18:46;;;;;;;25.15;14.83;;;;;;;4.73;74.25;93049.73;1709454;83;20984;-48
2022/02/18 01:21:12;;;;;;;21.68;14.28;;;;;;;4.70;74.59;93050.05;1708779;83;21220;-47
2022/02/18 01:23:40;;;;;;;14.20;11.33;;;;;;;4.71;74.55;93053.52;1703738;83;21012;-47
2022/02/18 01:26:06;;;;;;;12.93;8.33;;;;;;;4.73;74.64;93052.47;1685237;83;21399;-48
2022/02/18 01:28:33;;;;;;;12.33;8.83;;;;;;;4.74;74.78;93063.51;1681363;83;21238;-46
2022/02/18 01:31:00;;;;;;;14.25;9.45;;;;;;;4.73;74.89;93060.63;1659099;83;21083;-48
2022/02/18 01:33:27;;;;;;;17.35;11.97;;;;;;;4.77;74.24;93060.66;1686357;83;21162;-47
2022/02/18 01:35:53;;;;;;;14.03;10.70;;;;;;;4.79;72.68;93070.48;1688400;83;21527;-47
2022/02/18 01:38:20;;;;;;;21.48;16.25;;;;;;;4.89;72.03;93063.86;1714342;83;21020;-47
2022/02/18 01:40:48;;;;;;;12.05;8.75;;;;;;;4.91;71.25;93073.70;1692143;83;21557;-47
2022/02/18 01:43:15;;;;;;;6.53;4.87;;;;;;;4.93;70.29;93080.81;1686898;83;21012;-47
2022/02/18 01:45:41;;;;;;;7.17;5.03;;;;;;;4.99;69.56;93079.00;1664661;85;21118;-48
2022/02/18 01:48:08;;;;;;;6.62;4.80;;;;;;;5.06;69.00;93084.18;1653246;83;21721;-48
2022/02/18 01:50:34;;;;;;;4.33;3.95;;;;;;;5.16;68.57;93079.50;1682190;83;21004;-47
2022/02/18 01:53:01;;;;;;;6.78;5.50;;;;;;;5.20;67.70;93080.87;1682872;83;21052;-48
2022/02/18 01:55:31;;;;;;;22.98;16.15;;;;;;;5.23;67.25;93080.55;1702544;83;21036;-47
2022/02/18 01:57:59;;;;;;;6.65;5.95;;;;;;;5.25;67.09;93081.00;1699652;83;21177;-47
2022/02/18 02:00:29;;;;;;;4.10;3.80;;;;;;;5.21;66.82;93080.25;1702455;83;20957;-49
2022/02/18 02:02:58;;;;;;;3.70;3.40;;;;;;;5.21;67.12;93082.39;1704161;83;20988;-48
2022/02/18 02:05:25;;;;;;;5.10;4.60;;;;;;;5.20;67.22;93093.73;1687282;83;20976;-46
2022/02/18 02:07:52;;;;;;;6.05;5.10;;;;;;;5.17;67.46;93098.11;1691341;83;21008;-46
2022/02/18 02:10:19;;;;;;;7.58;6.17;;;;;;;5.22;67.82;93105.70;1690138;83;21164;-47
2022/02/18 02:12:52;;;;;;;8.88;6.87;;;;;;;5.20;67.93;93110.08;1711175;83;21009;-47
2022/02/18 02:15:34;;;;;;;10.08;7.30;;;;;;;5.12;68.29;93113.70;1651877;85;21516;-47
2022/02/18 02:18:01;;;;;;;12.43;8.05;;;;;;;5.08;68.65;93119.13;1648285;85;20983;-47
2022/02/18 02:20:29;;;;;;;10.70;7.78;;;;;;;5.06;69.03;93131.87;1654270;84;21015;-47
2022/02/18 02:22:56;;;;;;;15.13;12.55;;;;;;;5.04;69.25;93145.19;1652158;84;21182;-47
2022/02/18 02:25:36;;;;;;;20.45;18.30;;;;;;;5.07;69.31;93156.54;1663722;84;20955;-47
2022/02/18 02:28:05;;;;;;;5.97;5.47;;;;;;;5.12;68.81;93155.94;1649414;84;34272;-46
2022/02/18 02:30:33;;;;;;;5.90;5.35;;;;;;;5.07;69.04;93175.62;1681613;83;20978;-48
2022/02/18 02:33:04;;;;;;;7.00;6.45;;;;;;;4.91;69.69;93170.41;1685781;83;21581;-47
2022/02/18 02:35:32;;;;;;;6.50;5.90;;;;;;;4.86;70.20;93171.59;1698006;83;21886;-48
2022/02/18 02:38:00;;;;;;;10.75;9.75;;;;;;;4.80;70.60;93174.14;1674477;83;21082;-48
2022/02/18 02:40:27;;;;;;;16.70;15.13;;;;;;;4.73;71.12;93186.69;1691105;83;21117;-47
2022/02/18 02:42:54;;;;;;;24.52;17.42;;;;;;;4.67;71.62;93189.84;1678710;83;20986;-47
2022/02/18 02:45:21;;;;;;;10.88;7.47;;;;;;;4.66;71.86;93195.14;1669441;83;21433;-47
2022/02/18 02:47:48;;;;;;;7.97;7.00;;;;;;;4.67;72.04;93192.57;1710181;83;21147;-47
2022/02/18 02:50:18;;;;;;;9.60;7.40;;;;;;;4.67;72.02;93201.33;1664365;83;21456;-47
2022/02/18 02:52:45;;;;;;;4.05;3.75;;;;;;;4.72;72.10;93203.47;1695028;83;21018;-46
2022/02/18 02:55:13;;;;;;;8.08;7.10;;;;;;;4.73;69.32;93209.84;1688697;83;21010;-47
2022/02/18 02:57:43;;;;;;;6.60;5.50;;;;;;;4.72;69.32;93219.80;1694191;83;21061;-46
2022/02/18 03:00:12;;;;;;;7.65;6.85;;;;;;;4.79;69.40;93230.45;1664099;84;21162;-46
2022/02/18 03:02:40;;;;;;;5.50;4.95;;;;;;;4.82;68.32;93213.95;1690190;83;21056;-47
2022/02/18 03:05:07;;;;;;;7.90;5.97;;;;;;;4.87;67.58;93236.55;1690134;83;21075;-47
2022/02/18 03:07:36;;;;;;;9.20;8.18;;;;;;;4.89;66.93;93240.16;1693554;83;20968;-47
2022/02/18 03:10:07;;;;;;;7.97;6.35;;;;;;;4.95;65.99;93239.14;1717525;83;20981;-46
2022/02/18 03:12:36;;;;;;;7.62;6.47;;;;;;;4.96;65.64;93244.75;1717670;83;21978;-46
2022/02/18 03:15:09;;;;;;;12.25;8.33;;;;;;;4.95;65.46;93243.23;1712920;83;21090;-47
2022/02/18 03:17:36;;;;;;;10.20;6.92;;;;;;;4.96;66.01;93250.19;1701228;83;21513;-47
2022/02/18 03:20:07;;;;;;;8.85;7.37;;;;;;;4.96;66.28;93262.45;1695019;83;20957;-46
2022/02/18 03:22:36;;;;;;;8.60;6.92;;;;;;;4.98;65.60;93266.11;1703174;83;21061;-47
2022/02/18 03:25:05;;;;;;;5.60;5.05;;;;;;;5.02;66.18;93262.64;1709421;83;21465;-47
2022/02/18 03:27:31;;;;;;;5.70;4.72;;;;;;;5.02;66.62;93267.50;1692972;84;21005;-47
2022/02/18 03:29:58;;;;;;;7.25;5.37;;;;;;;5.03;67.24;93275.83;1667780;84;21086;-47
2022/02/18 03:32:27;;;;;;;12.50;8.28;;;;;;;4.95;67.34;93274.56;1675670;84;20988;-47
2022/02/18 03:34:55;;;;;;;13.30;8.90;;;;;;;4.88;67.87;93284.38;1698765;83;21004;-48
2022/02/18 03:37:24;;;;;;;9.50;7.00;;;;;;;4.82;68.46;93291.59;1671456;83;21808;-47
2022/02/18 03:39:52;;;;;;;13.55;9.30;;;;;;;4.77;68.23;93288.08;1694425;83;21072;-47
2022/02/18 03:42:19;;;;;;;16.45;10.03;;;;;;;4.64;68.21;93292.09;1684744;83;21036;-47
2022/02/18 03:44:47;;;;;;;14.30;10.78;;;;;;;4.58;68.77;93294.63;1670123;83;21157;-47
2022/02/18 03:47:14;;;;;;;11.38;8.03;;;;;;;4.59;69.08;93303.56;1686649;83;20973;-47
2022/02/18 03:49:41;;;;;;;5.42;4.90;;;;;;;4.60;69.13;93314.00;1667668;85;21151;-47
2022/02/18 03:52:09;;;;;;;4.30;3.98;;;;;;;4.59;69.14;93309.75;1700305;83;21056;-46
2022/02/18 03:54:37;;;;;;;38.83;25.45;;;;;;;4.60;69.46;93311.27;1688902;83;20994;-48
2022/02/18 03:57:04;;;;;;;25.25;15.83;;;;;;;4.57;69.71;93318.97;1691386;83;21009;-47
2022/02/18 03:59:31;;;;;;;26.48;19.20;;;;;;;4.59;69.72;93330.17;1698727;83;21452;-47
2022/02/18 04:02:00;;;;;;;12.53;9.68;;;;;;;4.57;69.59;93325.78;1666258;83;21912;-47
2022/02/18 04:04:28;;;;;;;20.77;10.68;;;;;;;4.55;69.78;93337.72;1675710;83;21097;-46
2022/02/18 04:07:03;;;;;;;22.25;13.48;;;;;;;4.49;69.93;93342.80;1695935;83;21504;-47
2022/02/18 04:09:34;;;;;;;35.63;21.52;;;;;;;4.38;70.38;93343.18;1712268;83;26602;-46
2022/02/18 04:12:05;;;;;;;84.00;40.73;;;;;;;4.30;70.72;93344.64;1682449;83;21117;-47
2022/02/18 04:14:33;;;;;;;61.90;37.30;;;;;;;4.28;71.19;93355.18;1689890;83;21152;-46
2022/02/18 04:17:04;;;;;;;46.18;27.05;;;;;;;4.34;71.15;93360.23;1689987;83;20956;-46
2022/02/18 04:19:33;;;;;;;41.10;22.82;;;;;;;4.43;70.86;93360.30;1695226;83;20972;-46
2022/02/18 04:22:02;;;;;;;21.07;11.97;;;;;;;4.43;70.02;93365.00;1703990;83;21493;-48
2022/02/18 04:24:31;;;;;;;30.37;19.02;;;;;;;4.37;70.04;93371.60;1675060;83;21136;-47
2022/02/18 04:26:58;;;;;;;22.77;14.47;;;;;;;4.34;70.15;93372.48;1689307;83;21196;-47
2022/02/18 04:29:24;;;;;;;72.03;44.20;;;;;;;4.34;69.23;93383.38;1695711;83;21063;-46
2022/02/18 04:31:52;;;;;;;26.80;15.45;;;;;;;4.29;69.23;93375.78;1706710;83;20998;-47
2022/02/18 04:34:18;;;;;;;13.00;9.58;;;;;;;4.34;68.95;93383.38;1700957;83;21054;-46
2022/02/18 04:36:45;;;;;;;9.50;8.08;;;;;;;4.34;69.06;93386.09;1710534;83;21143;-47
2022/02/18 04:39:12;;;;;;;20.17;14.95;;;;;;;4.31;69.31;93395.15;1677693;85;21804;-47
2022/02/18 04:41:38;;;;;;;14.80;12.80;;;;;;;4.28;68.30;93400.09;1673644;83;22545;-48
2022/02/18 04:44:05;;;;;;;15.13;13.53;;;;;;;4.32;67.93;93400.75;1674618;84;21409;-46
2022/02/18 04:46:32;;;;;;;12.82;11.53;;;;;;;4.40;67.72;93409.45;1698056;83;21008;-47
2022/02/18 04:48:59;;;;;;;13.45;12.05;;;;;;;4.42;67.45;93405.06;1707668;83;21063;-47
2022/02/18 04:51:26;;;;;;;13.10;10.82;;;;;;;4.37;67.51;93413.80;1696483;83;21186;-46
2022/02/18 04:53:55;;;;;;;12.23;9.28;;;;;;;4.32;67.38;93414.95;1669179;83;21098;-46
2022/02/18 04:56:22;;;;;;;11.22;9.83;;;;;;;4.34;67.23;93413.32;1697262;83;20986;-47
2022/02/18 04:58:49;;;;;;;7.50;6.55;;;;;;;4.31;66.66;93421.01;1677241;83;21096;-47
2022/02/18 05:01:16;;;;;;;8.60;6.87;;;;;;;4.28;66.83;93419.75;1695948;83;20953;-48
2022/02/18 05:03:43;;;;;;;26.30;18.48;;;;;;;4.26;67.05;93430.32;1651569;84;23150;-46
2022/02/18 05:06:10;;;;;;;16.27;12.05;;;;;;;4.20;67.44;93434.19;1689490;83;20953;-47
2022/02/18 05:08:36;;;;;;;26.77;18.32;;;;;;;4.18;67.69;93442.03;1701169;83;21397;-47
2022/02/18 05:11:03;;;;;;;26.17;18.82;;;;;;;4.14;66.78;93441.98;1677971;83;21041;-46
2022/02/18 05:13:32;;;;;;;22.20;18.32;;;;;;;4.14;66.82;93447.42;1701047;83;21012;-46
2022/02/18 05:15:58;;;;;;;19.45;13.88;;;;;;;4.10;65.52;93448.14;1679050;83;21328;-47
2022/02/18 05:18:25;;;;;;;26.23;19.32;;;;;;;4.13;64.71;93447.26;1710176;83;21645;-47
2022/02/18 05:20:52;;;;;;;35.10;26.48;;;;;;;4.10;64.63;93454.36;1692985;83;21024;-52
2022/02/18 05:23:18;;;;;;;24.32;17.48;;;;;;;4.06;64.57;93460.48;1691894;83;21571;-53
2022/02/18 05:25:45;;;;;;;25.40;18.27;;;;;;;4.09;63.83;93458.86;1695397;83;21432;-53
2022/02/18 05:28:15;;;;;;;30.50;19.80;;;;;;;4.07;63.95;93464.73;1682443;83;21957;-48
2022/02/18 05:30:45;;;;;;;30.70;22.10;;;;;;;4.13;63.36;93467.67;1685619;82;21452;-48
2022/02/18 05:33:12;;;;;;;38.33;24.82;;;;;;;4.17;63.79;93473.75;1690379;83;21034;-48
2022/02/18 05:35:40;;;;;;;48.60;33.80;;;;;;;4.14;64.24;93478.13;1691376;84;21077;-48
2022/02/18 05:38:07;;;;;;;28.50;21.10;;;;;;;4.09;64.48;93480.02;1682978;83;20986;-47
2022/02/18 05:40:36;;;;;;;21.52;17.30;;;;;;;4.14;64.21;93480.85;1690498;83;20954;-47
2022/02/18 05:43:04;;;;;;;36.70;29.27;;;;;;;4.13;64.28;93480.69;1695628;83;21461;-46
2022/02/18 05:45:32;;;;;;;31.12;24.57;;;;;;;4.14;64.32;93483.57;1691110;83;21064;-48
2022/02/18 05:48:00;;;;;;;49.93;35.92;;;;;;;4.10;63.34;93490.31;1691998;83;21067;-48
2022/02/18 05:50:27;;;;;;;39.05;27.90;;;;;;;4.10;63.71;93496.53;1680216;83;21575;-48
2022/02/18 05:52:53;;;;;;;28.57;21.77;;;;;;;4.05;63.82;93514.74;1683252;83;21146;-46
2022/02/18 05:55:20;;;;;;;22.82;19.20;;;;;;;3.98;63.71;93516.33;1685461;83;21024;-49
2022/02/18 05:57:47;;;;;;;22.20;15.48;;;;;;;4.04;63.68;93518.66;1695216;83;21559;-46
2022/02/18 06:00:15;;;;;;;23.77;18.00;;;;;;;4.14;63.31;93520.31;1703665;83;21057;-48
2022/02/18 06:02:43;;;;;;;21.45;13.93;;;;;;;4.20;63.01;93530.05;1700465;83;21078;-48
2022/02/18 06:05:10;;;;;;;7.22;6.50;;;;;;;4.23;62.89;93525.09;1690133;83;21152;-47
2022/02/18 06:07:44;;;;;;;16.30;13.05;;;;;;;4.17;61.22;93534.98;1705121;83;21095;-48
2022/02/18 06:10:13;;;;;;;9.15;8.10;;;;;;;4.10;60.76;93537.93;1696578;83;21054;-47
2022/02/18 06:12:39;;;;;;;13.15;10.08;;;;;;;4.06;60.56;93540.75;1685675;83;21054;-49
2022/02/18 06:15:08;;;;;;;21.20;14.47;;;;;;;4.08;60.44;93546.52;1648048;84;21161;-48
2022/02/18 06:17:39;;;;;;;11.55;9.15;;;;;;;4.16;60.01;93553.28;1689977;83;21123;-48
2022/02/18 06:20:08;;;;;;;15.05;10.13;;;;;;;4.25;60.14;93557.47;1698865;83;21001;-51
2022/02/18 06:22:36;;;;;;;9.23;6.95;;;;;;;4.32;60.71;93564.66;1675540;83;21044;-51
2022/02/18 06:25:07;;;;;;;5.87;5.37;;;;;;;4.26;61.11;93563.07;1709487;82;21684;-52
2022/02/18 06:27:34;;;;;;;14.98;10.25;;;;;;;4.20;60.42;93561.35;1676017;83;21477;-50
2022/02/18 06:30:01;;;;;;;11.60;8.28;;;;;;;4.19;60.77;93559.22;1680113;83;21061;-49
2022/02/18 06:32:31;;;;;;;18.87;11.33;;;;;;;4.21;61.12;93570.42;1691959;83;21065;-47
2022/02/18 06:34:57;;;;;;;19.55;11.70;;;;;;;4.23;61.13;93584.97;1701951;82;21101;-49
2022/02/18 06:37:24;;;;;;;18.15;11.80;;;;;;;4.24;60.90;93581.05;1682725;83;21068;-49
2022/02/18 06:39:51;;;;;;;11.25;7.75;;;;;;;4.26;60.49;93580.02;1702377;83;21012;-48
2022/02/18 06:42:17;;;;;;;14.63;9.20;;;;;;;4.30;60.56;93587.47;1689399;83;22140;-49
2022/02/18 06:44:44;;;;;;;18.05;11.40;;;;;;;4.31;60.86;93588.41;1663636;82;21051;-53
2022/02/18 06:47:11;;;;;;;12.10;8.45;;;;;;;4.36;60.89;93586.49;1695577;83;21404;-50
2022/02/18 06:49:38;;;;;;;11.30;8.43;;;;;;;4.41;59.92;93586.56;1671702;83;21141;-51
2022/02/18 06:52:06;;;;;;;16.17;10.72;;;;;;;4.43;59.94;93590.34;1676639;83;21092;-49
2022/02/18 06:54:33;;;;;;;45.33;21.00;;;;;;;4.44;59.80;93588.41;1691933;83;21141;-50
2022/02/18 06:57:02;;;;;;;16.15;10.32;;;;;;;4.42;59.94;93592.91;1677247;83;21121;-51
2022/02/18 06:59:30;;;;;;;11.83;8.40;;;;;;;4.42;59.06;93591.55;1680425;83;21052;-46
2022/02/18 07:01:56;;;;;;;25.12;13.62;;;;;;;4.45;59.00;93593.39;1686951;83;21095;-49
2022/02/18 07:04:23;;;;;;;30.15;18.00;;;;;;;4.53;59.28;93600.16;1689254;83;22269;-50
2022/02/18 07:06:51;;;;;;;17.82;12.55;;;;;;;4.67;59.39;93601.09;1680063;82;21161;-47
2022/02/18 07:09:19;;;;;;;10.63;7.42;;;;;;;4.80;59.23;93602.44;1676979;83;21366;-47
2022/02/18 07:11:46;;;;;;;11.43;9.83;;;;;;;4.84;58.50;93606.58;1706141;82;21002;-51
2022/02/18 07:14:13;;;;;;;11.15;8.48;;;;;;;4.75;58.44;93613.89;1694152;82;21464;-49
2022/02/18 07:16:41;;;;;;;7.17;5.83;;;;;;;4.68;58.18;93606.70;1704918;82;21148;-47
2022/02/18 07:19:12;;;;;;;14.13;9.85;;;;;;;4.71;57.81;93622.16;1696960;82;21880;-48
2022/02/18 07:21:38;;;;;;;16.95;9.70;;;;;;;4.71;58.17;93626.83;1688483;81;21079;-48
2022/02/18 07:24:09;;;;;;;18.02;13.88;;;;;;;4.74;58.01;93626.73;1681034;82;21139;-49
2022/02/18 07:26:37;;;;;;;24.92;17.02;;;;;;;4.76;57.98;93622.97;1688355;82;21069;-52
2022/02/18 07:29:04;;;;;;;15.20;11.18;;;;;;;4.81;57.83;93631.95;1660949;83;22000;-49
2022/02/18 07:31:32;;;;;;;25.50;14.63;;;;;;;4.93;57.85;93634.52;1672513;83;21096;-50
2022/02/18 07:33:58;;;;;;;54.85;20.85;;;;;;;5.03;57.62;93627.37;1691506;82;21018;-48
2022/02/18 07:36:25;;;;;;;27.05;12.07;;;;;;;5.16;56.82;93629.45;1683270;83;21183;-49
2022/02/18 07:38:52;;;;;;;68.28;25.30;;;;;;;5.22;56.31;93631.80;1684921;82;21213;-49
2022/02/18 07:41:19;;;;;;;61.10;19.77;;;;;;;5.29;56.34;93632.33;1706683;82;21035;-47
2022/02/18 07:43:46;;;;;;;30.02;13.15;;;;;;;5.41;56.05;93638.95;1686139;82;21159;-50
2022/02/18 07:46:13;;;;;;;41.53;14.83;;;;;;;5.48;55.71;93633.23;1700766;82;21026;-48
2022/02/18 07:48:40;;;;;;;29.42;17.27;;;;;;;5.54;54.80;93635.56;1685594;82;21028;-53
2022/02/18 07:51:07;;;;;;;25.30;12.88;;;;;;;5.61;55.48;93637.44;1676407;82;21138;-50
2022/02/18 07:53:35;;;;;;;20.43;11.85;;;;;;;5.60;54.81;93631.08;1674026;84;21560;-49
2022/02/18 07:56:02;;;;;;;10.90;8.60;;;;;;;5.59;55.15;93632.29;1682369;83;21150;-52
2022/02/18 07:58:29;;;;;;;49.05;22.37;;;;;;;5.55;54.96;93636.48;1685001;82;21113;-48
2022/02/18 08:00:56;;;;;;;39.60;21.87;;;;;;;5.55;55.36;93647.41;1689970;82;21112;-49
2022/02/18 08:03:22;;;;;;;219.28;145.68;;;;;;;5.63;55.26;93645.95;1673276;83;21030;-49
2022/02/18 08:05:51;;;;;;;101.67;79.05;;;;;;;5.73;54.59;93643.47;1672444;83;21183;-49
2022/02/18 08:08:20;;;;;;;35.20;26.48;;;;;;;5.82;54.06;93646.89;1668225;82;21698;-49
2022/02/18 08:10:47;;;;;;;28.95;21.00;;;;;;;5.85;53.37;93648.73;1698388;82;21196;-51
2022/02/18 08:13:14;;;;;;;17.87;15.68;;;;;;;5.78;53.42;93651.69;1701177;82;21058;-48
2022/02/18 08:15:43;;;;;;;17.10;13.65;;;;;;;5.74;53.55;93644.21;1686850;83;21082;-50
2022/02/18 08:18:11;;;;;;;14.05;12.70;;;;;;;5.72;53.20;93646.03;1691711;82;21486;-49
2022/02/18 08:20:38;;;;;;;6.95;6.15;;;;;;;5.68;53.17;93648.12;1691275;82;22694;-51
2022/02/18 08:23:05;;;;;;;8.80;5.50;;;;;;;5.58;53.30;93641.67;1696964;82;21069;-51
2022/02/18 08:25:33;;;;;;;21.93;14.60;;;;;;;5.49;53.66;93645.67;1699701;82;21538;-49
2022/02/18 08:28:00;;;;;;;19.67;15.55;;;;;;;5.45;54.02;93655.33;1703937;82;21144;-50
2022/02/18 08:30:27;;;;;;;14.00;9.28;;;;;;;5.47;54.07;93653.53;1693732;82;21076;-49
2022/02/18 08:32:54;;;;;;;11.78;10.08;;;;;;;5.50;53.60;93652.65;1674320;82;21044;-51
2022/02/18 08:35:21;;;;;;;36.45;33.13;;;;;;;5.52;53.93;93657.06;1692046;83;21582;-50
2022/02/18 08:37:48;;;;;;;15.38;9.73;;;;;;;5.56;54.17;93668.02;1696791;83;21028;-50
2022/02/18 08:40:15;;;;;;;19.07;11.85;;;;;;;5.60;53.94;93661.09;1705436;82;21063;-51
2022/02/18 08:42:42;;;;;;;9.35;7.42;;;;;;;5.60;54.52;93657.74;1694105;83;21860;-50
2022/02/18 08:45:10;;;;;;;11.78;7.70;;;;;;;5.62;54.04;93665.50;1681939;82;21110;-48
2022/02/18 08:47:38;;;;;;;6.28;4.33;;;;;;;5.63;53.67;93664.30;1643602;85;21195;-49
2022/02/18 08:50:10;;;;;;;8.65;7.83;;;;;;;5.74;52.94;93664.67;1682884;82;21536;-50
2022/02/18 08:52:39;;;;;;;17.35;15.32;;;;;;;5.85;52.50;93671.94;1698712;82;21134;-52
2022/02/18 08:55:09;;;;;;;14.35;7.45;;;;;;;5.91;51.98;93655.14;1693032;81;22307;-48
2022/02/18 08:57:39;;;;;;;7.33;5.75;;;;;;;5.95;52.61;93660.64;1701106;82;21625;-49
2022/02/18 09:00:12;;;;;;;6.15;5.50;;;;;;;6.06;51.58;93670.59;1679347;83;21176;-51
2022/02/18 09:02:41;;;;;;;6.42;4.22;;;;;;;6.13;51.45;93658.66;1679535;83;21137;-48
2022/02/18 09:05:10;;;;;;;9.40;7.15;;;;;;;6.19;49.01;93669.16;1671561;82;21174;-50
2022/02/18 09:07:44;;;;;;;8.95;8.05;;;;;;;6.24;50.41;93668.58;1692541;82;22049;-50
2022/02/18 09:10:12;;;;;;;7.20;5.67;;;;;;;6.39;50.04;93651.84;1694931;82;21297;-51
2022/02/18 09:12:44;;;;;;;5.92;4.80;;;;;;;6.55;49.39;93670.13;1697478;82;21026;-53
2022/02/18 09:15:14;;;;;;;7.72;5.25;;;;;;;6.61;49.43;93664.27;1680091;82;21527;-49
2022/02/18 09:17:53;;;;;;;5.40;4.70;;;;;;;6.83;49.69;93677.27;1689863;83;21129;-51
2022/02/18 09:20:21;;;;;;;10.43;4.25;;;;;;;7.18;48.60;93675.27;1680947;83;21047;-47
2022/02/18 09:22:48;;;;;;;7.83;3.83;;;;;;;7.56;48.96;93681.14;1670864;83;21121;-46
2022/02/18 09:25:15;;;;;;;43.02;37.30;;;;;;;7.65;47.20;93697.59;1679178;83;21117;-50
2022/02/18 09:27:42;;;;;;;5.72;4.65;;;;;;;7.58;47.58;93707.48;1678828;83;21115;-50
2022/02/18 09:30:12;;;;;;;4.10;3.70;;;;;;;7.33;46.97;93720.00;1700620;83;21045;-50
2022/02/18 09:32:40;;;;;;;3.77;3.40;;;;;;;6.95;47.38;93723.48;1702345;82;21115;-49
2022/02/18 09:35:07;;;;;;;6.83;4.40;;;;;;;6.70;47.70;93725.03;1673375;84;21153;-51
2022/02/18 09:37:37;;;;;;;37.17;24.32;;;;;;;6.62;48.16;93742.29;1714022;82;21067;-51
2022/02/18 09:40:07;;;;;;;5.83;5.25;;;;;;;6.53;48.32;93746.31;1730000;82;21546;-51
2022/02/18 09:42:37;;;;;;;6.80;3.90;;;;;;;6.71;48.49;93768.91;1707726;82;21029;-49
2022/02/18 09:45:04;;;;;;;5.80;3.92;;;;;;;6.77;48.09;93757.55;1684233;82;21034;-48
2022/02/18 09:47:34;;;;;;;5.70;3.58;;;;;;;6.65;48.48;93773.41;1694326;82;21075;-51
2022/02/18 09:50:01;;;;;;;4.10;3.70;;;;;;;6.36;48.21;93779.73;1695396;82;20992;-49
2022/02/18 09:52:28;;;;;;;4.20;3.90;;;;;;;6.06;48.70;93780.38;1702230;82;21584;-48
2022/02/18 09:54:55;;;;;;;4.30;3.87;;;;;;;5.86;50.61;93779.88;1681143;84;21118;-50
2022/02/18 09:57:22;;;;;;;26.05;23.30;;;;;;;5.75;50.08;93794.47;1685331;82;21544;-52
2022/02/18 09:59:49;;;;;;;10.28;8.23;;;;;;;5.79;51.17;93792.41;1680487;83;22272;-49
2022/02/18 10:02:16;;;;;;;7.55;6.50;;;;;;;5.99;50.76;93792.29;1698814;82;21051;-47
2022/02/18 10:04:43;;;;;;;8.60;6.87;;;;;;;6.32;50.30;93795.48;1663467;84;21080;-49
2022/02/18 10:07:10;;;;;;;23.27;21.05;;;;;;;6.73;49.88;93788.36;1689114;83;21098;-49
2022/02/18 10:09:41;;;;;;;8.58;7.15;;;;;;;7.20;49.52;93780.13;1695008;83;21046;-50
2022/02/18 10:12:10;;;;;;;5.97;5.47;;;;;;;7.70;48.51;93775.62;1706298;83;21140;-51
2022/02/18 10:14:58;;;;;;;6.72;4.75;;;;;;;8.20;46.39;93784.12;1689002;83;21132;-52
2022/02/18 10:17:40;;;;;;;4.92;3.75;;;;;;;8.70;46.58;93776.67;1691225;83;21018;-47
2022/02/18 10:20:21;;;;;;;8.15;4.70;;;;;;;9.12;45.38;93776.15;1691960;83;21087;-56
2022/02/18 10:23:01;;;;;;;4.42;3.50;;;;;;;9.34;43.67;93773.95;1692020;83;21553;-49
2022/02/18 10:25:36;;;;;;;6.22;4.33;;;;;;;9.94;41.29;93775.97;1634823;84;21043;-48
2022/02/18 10:28:04;;;;;;;4.72;3.98;;;;;;;10.50;40.13;93778.72;1686047;83;21017;-51
2022/02/18 10:30:31;;;;;;;6.70;4.50;;;;;;;10.54;38.49;93780.05;1677464;83;21909;-48
2022/02/18 10:33:12;;;;;;;3.83;3.50;;;;;;;10.13;39.53;93787.06;1669984;84;21411;-50
2022/02/18 10:35:40;;;;;;;5.87;4.65;;;;;;;9.62;39.00;93783.63;1677160;83;21062;-48
2022/02/18 10:38:07;;;;;;;5.65;3.77;;;;;;;9.23;41.17;93788.16;1666840;83;21091;-49
2022/02/18 10:40:47;;;;;;;7.17;3.72;;;;;;;9.11;40.76;93791.84;1679122;83;21090;-48
2022/02/18 10:43:16;;;;;;;7.35;4.70;;;;;;;9.31;40.68;93795.45;1677187;83;21156;-51
2022/02/18 10:46:01;;;;;;;5.20;4.25;;;;;;;9.71;40.36;93795.33;1663661;84;21030;-53
2022/02/18 10:48:33;;;;;;;6.20;4.78;;;;;;;9.92;39.63;93788.04;1679621;84;21909;-50
2022/02/18 10:51:11;;;;;;;14.45;10.18;;;;;;;9.72;38.94;93800.97;1697513;83;21174;-50
2022/02/18 10:53:44;;;;;;;13.13;10.35;;;;;;;9.41;40.52;93798.34;1687581;83;21602;-52
2022/02/18 10:56:15;;;;;;;7.92;5.60;;;;;;;8.98;40.87;93800.09;1684430;83;21511;-50
2022/02/18 10:58:47;;;;;;;6.58;4.33;;;;;;;8.64;40.59;93799.05;1679380;83;21086;-48
2022/02/18 11:01:18;;;;;;;5.70;3.40;;;;;;;8.27;40.15;93818.05;1711310;83;21811;-47
2022/02/18 11:03:48;;;;;;;6.20;4.80;;;;;;;7.80;40.49;93825.06;1690117;83;21329;-47
2022/02/18 11:06:21;;;;;;;9.45;4.85;;;;;;;7.40;42.00;93810.61;1685877;83;21006;-47
2022/02/18 11:08:59;;;;;;;6.70;4.72;;;;;;;7.14;43.05;93812.76;1657849;83;21061;-50
2022/02/18 11:11:44;;;;;;;7.20;4.17;;;;;;;7.03;43.47;93819.09;1699145;83;21054;-48
2022/02/18 11:14:13;;;;;;;6.85;5.55;;;;;;;7.03;43.62;93821.82;1694861;83;21033;-50
2022/02/18 11:16:52;;;;;;;6.12;4.90;;;;;;;7.22;44.21;93818.14;1688898;83;21113;-47
2022/02/18 11:19:16;;;;;;;5.45;4.17;;;;;;;8.04;42.96;93817.85;1693115;83;21118;-49
2022/02/18 11:21:44;;;;;;;7.65;4.97;;;;;;;8.81;39.68;93824.20;1669311;84;21074;-46
2022/02/18 11:24:11;;;;;;;7.17;4.00;;;;;;;9.07;39.13;93816.55;1689296;83;21027;-49
2022/02/18 11:26:38;;;;;;;7.20;6.50;;;;;;;9.18;39.73;93812.70;1678071;83;21522;-49
2022/02/18 11:29:08;;;;;;;11.38;7.90;;;;;;;9.06;39.56;93812.30;1689138;84;21436;-49
2022/02/18 11:31:46;;;;;;;22.07;14.15;;;;;;;8.96;39.24;93817.63;1689435;84;21066;-49
2022/02/18 11:34:38;;;;;;;7.97;4.97;;;;;;;9.47;39.12;93814.33;1689270;83;21125;-49
2022/02/18 11:37:30;;;;;;;24.25;15.08;;;;;;;10.39;37.36;93819.73;1633104;85;21083;-48